Hartford, Connecticut
Traffic Map
Current Weather Conditions
Hartford, Connecticut
Overcast
Overcast
70°
Feels Like: 70°
Wind Chill: 70° Ceiling: 4000
Heat Index: 70° Visibility: 10mi
Dew Point: 59° Wind: 15mph
Humidity: 68% Direction: 170° (S)
Pressure: 30.12in Gusts: 0mph
Raw Report DataKHFD 211853Z 17013KT 10SM FEW028 SCT034 OVC040 21/15 A3012 RMK AO2 SLP200 T02110150
Traffic Incident Summary
Active as of:
Severity:
Category:
InformationThere was an issue retrieving the traffic information for this location. Please try a different location or try again shortly.
Advertisements